sensor_id;sensor_type;location;lat;lon;timestamp;pressure;altitude;pressure_sealevel;temperature;humidity
41636;BME280;27623;51.966;4.602;2022-10-30T00:01:48;65102.47;;;16.90;100.00
41636;BME280;27623;51.966;4.602;2022-10-30T00:04:14;65126.22;;;16.90;100.00
41636;BME280;27623;51.966;4.602;2022-10-30T00:06:42;65083.38;;;16.89;100.00
41636;BME280;27623;51.966;4.602;2022-10-30T00:09:09;65068.28;;;16.87;100.00
41636;BME280;27623;51.966;4.602;2022-10-30T00:11:35;65109.66;;;16.89;100.00
41636;BME280;27623;51.966;4.602;2022-10-30T00:14:01;65075.78;;;16.98;100.00
41636;BME280;27623;51.966;4.602;2022-10-30T00:16:26;65099.28;;;17.03;100.00
41636;BME280;27623;51.966;4.602;2022-10-30T00:18:54;65123.22;;;16.99;100.00
41636;BME280;27623;51.966;4.602;2022-10-30T00:21:20;65114.41;;;16.98;100.00
41636;BME280;27623;51.966;4.602;2022-10-30T00:23:52;65101.75;;;16.87;100.00
41636;BME280;27623;51.966;4.602;2022-10-30T00:26:21;65065.97;;;16.75;100.00
41636;BME280;27623;51.966;4.602;2022-10-30T00:28:51;65076.63;;;16.80;100.00
41636;BME280;27623;51.966;4.602;2022-10-30T00:31:19;65100.34;;;16.80;100.00
41636;BME280;27623;51.966;4.602;2022-10-30T00:33:51;65097.25;;;16.73;100.00
41636;BME280;27623;51.966;4.602;2022-10-30T00:36:18;65088.03;;;16.81;100.00
41636;BME280;27623;51.966;4.602;2022-10-30T00:38:43;65097.25;;;16.73;100.00
41636;BME280;27623;51.966;4.602;2022-10-30T00:41:16;65047.28;;;16.65;100.00
41636;BME280;27623;51.966;4.602;2022-10-30T00:43:42;65095.19;;;16.80;100.00
41636;BME280;27623;51.966;4.602;2022-10-30T00:46:14;65085.31;;;16.71;100.00
41636;BME280;27623;51.966;4.602;2022-10-30T00:48:45;65085.69;;;16.69;100.00
41636;BME280;27623;51.966;4.602;2022-10-30T00:51:12;65072.44;;;16.71;100.00
41636;BME280;27623;51.966;4.602;2022-10-30T00:53:41;65066.56;;;16.68;100.00
41636;BME280;27623;51.966;4.602;2022-10-30T00:56:09;65080.31;;;16.74;100.00
41636;BME280;27623;51.966;4.602;2022-10-30T00:58:38;65076.28;;;16.75;100.00
41636;BME280;27623;51.966;4.602;2022-10-30T01:01:08;65083.28;;;16.72;100.00
41636;BME280;27623;51.966;4.602;2022-10-30T01:03:35;65087.88;;;16.71;100.00
41636;BME280;27623;51.966;4.602;2022-10-30T01:06:03;65062.88;;;16.74;100.00
41636;BME280;27623;51.966;4.602;2022-10-30T01:08:30;65068.75;;;16.70;100.00
41636;BME280;27623;51.966;4.602;2022-10-30T01:10:59;65069.88;;;16.71;100.00
41636;BME280;27623;51.966;4.602;2022-10-30T01:13:32;65076.84;;;16.68;100.00
41636;BME280;27623;51.966;4.602;2022-10-30T01:18:53;65052.84;;;16.56;100.00
41636;BME280;27623;51.966;4.602;2022-10-30T01:21:32;65040.19;;;16.51;100.00
41636;BME280;27623;51.966;4.602;2022-10-30T01:27:08;65037.63;;;16.44;100.00
41636;BME280;27623;51.966;4.602;2022-10-30T01:29:54;65050.28;;;16.48;100.00
41636;BME280;27623;51.966;4.602;2022-10-30T01:35:05;65043.84;;;16.52;100.00
41636;BME280;27623;51.966;4.602;2022-10-30T01:37:56;65057.25;;;16.53;100.00
41636;BME280;27623;51.966;4.602;2022-10-30T01:40:23;65069.03;;;16.52;100.00
41636;BME280;27623;51.966;4.602;2022-10-30T01:42:54;65046.69;;;16.33;100.00
41636;BME280;27623;51.966;4.602;2022-10-30T01:57:07;65070.75;;;16.39;100.00
41636;BME280;27623;51.966;4.602;2022-10-30T01:59:49;65020.44;;;16.33;100.00
41636;BME280;27623;51.966;4.602;2022-10-30T02:02:17;65026.31;;;16.36;100.00
41636;BME280;27623;51.966;4.602;2022-10-30T02:04:45;65035.03;;;16.20;100.00
41636;BME280;27623;51.966;4.602;2022-10-30T02:07:13;64998.47;;;16.20;100.00
41636;BME280;27623;51.966;4.602;2022-10-30T02:09:41;64979.56;;;16.14;100.00
41636;BME280;27623;51.966;4.602;2022-10-30T02:12:09;65044.88;;;16.29;100.00
41636;BME280;27623;51.966;4.602;2022-10-30T02:14:38;65063.59;;;16.32;100.00
41636;BME280;27623;51.966;4.602;2022-10-30T02:17:06;65031.91;;;16.20;100.00
41636;BME280;27623;51.966;4.602;2022-10-30T02:19:32;64999.03;;;16.13;100.00
41636;BME280;27623;51.966;4.602;2022-10-30T02:21:58;65016.88;;;16.10;100.00
41636;BME280;27623;51.966;4.602;2022-10-30T02:24:27;64996.56;;;15.99;100.00
41636;BME280;27623;51.966;4.602;2022-10-30T02:26:56;64986.31;;;15.85;100.00
41636;BME280;27623;51.966;4.602;2022-10-30T02:29:24;64979.50;;;15.90;100.00
41636;BME280;27623;51.966;4.602;2022-10-30T02:31:52;64966.25;;;15.99;100.00
41636;BME280;27623;51.966;4.602;2022-10-30T02:34:18;64991.19;;;16.03;100.00
41636;BME280;27623;51.966;4.602;2022-10-30T02:36:43;64997.44;;;16.04;100.00
41636;BME280;27623;51.966;4.602;2022-10-30T02:39:13;64981.91;;;15.88;100.00
41636;BME280;27623;51.966;4.602;2022-10-30T02:41:39;64969.78;;;15.91;100.00
41636;BME280;27623;51.966;4.602;2022-10-30T02:44:07;65003.72;;;15.98;100.00
41636;BME280;27623;51.966;4.602;2022-10-30T02:46:33;65001.00;;;15.89;100.00
41636;BME280;27623;51.966;4.602;2022-10-30T02:48:58;64987.03;;;15.95;100.00
41636;BME280;27623;51.966;4.602;2022-10-30T02:51:26;64948.66;;;15.90;100.00
41636;BME280;27623;51.966;4.602;2022-10-30T02:53:51;65008.91;;;15.84;100.00
41636;BME280;27623;51.966;4.602;2022-10-30T02:56:17;64966.66;;;15.90;100.00
41636;BME280;27623;51.966;4.602;2022-10-30T02:58:43;64995.31;;;15.88;100.00
41636;BME280;27623;51.966;4.602;2022-10-30T03:01:16;64946.13;;;15.83;100.00
41636;BME280;27623;51.966;4.602;2022-10-30T03:03:48;64991.09;;;15.87;100.00
41636;BME280;27623;51.966;4.602;2022-10-30T03:06:15;64983.00;;;15.89;100.00
41636;BME280;27623;51.966;4.602;2022-10-30T03:08:45;64988.72;;;15.82;100.00
41636;BME280;27623;51.966;4.602;2022-10-30T03:11:15;64958.47;;;15.75;100.00
41636;BME280;27623;51.966;4.602;2022-10-30T03:13:42;64955.75;;;15.73;100.00
41636;BME280;27623;51.966;4.602;2022-10-30T03:16:13;64932.63;;;15.73;100.00
41636;BME280;27623;51.966;4.602;2022-10-30T03:18:41;64983.09;;;15.74;100.00
41636;BME280;27623;51.966;4.602;2022-10-30T03:21:11;64961.06;;;15.68;100.00
41636;BME280;27623;51.966;4.602;2022-10-30T03:23:36;64927.47;;;15.73;100.00
41636;BME280;27623;51.966;4.602;2022-10-30T03:26:03;64949.56;;;15.58;100.00
41636;BME280;27623;51.966;4.602;2022-10-30T03:28:29;64890.09;;;15.60;100.00
41636;BME280;27623;51.966;4.602;2022-10-30T03:31:00;64949.91;;;15.63;100.00
41636;BME280;27623;51.966;4.602;2022-10-30T03:33:26;64927.59;;;15.44;100.00
41636;BME280;27623;51.966;4.602;2022-10-30T03:35:52;64924.66;;;15.46;100.00
41636;BME280;27623;51.966;4.602;2022-10-30T03:38:17;64910.91;;;15.41;100.00
41636;BME280;27623;51.966;4.602;2022-10-30T03:40:46;64932.53;;;15.49;100.00
41636;BME280;27623;51.966;4.602;2022-10-30T03:43:14;64927.75;;;15.47;100.00
41636;BME280;27623;51.966;4.602;2022-10-30T03:45:45;64933.81;;;15.45;100.00
41636;BME280;27623;51.966;4.602;2022-10-30T03:48:14;64954.91;;;15.46;100.00
41636;BME280;27623;51.966;4.602;2022-10-30T03:50:44;64938.59;;;15.47;100.00
41636;BME280;27623;51.966;4.602;2022-10-30T03:53:12;64911.44;;;15.41;100.00
41636;BME280;27623;51.966;4.602;2022-10-30T03:55:38;64909.22;;;15.46;100.00
41636;BME280;27623;51.966;4.602;2022-10-30T03:58:06;64935.28;;;15.44;100.00
41636;BME280;27623;51.966;4.602;2022-10-30T04:00:35;64883.44;;;15.37;100.00
41636;BME280;27623;51.966;4.602;2022-10-30T04:03:04;64923.63;;;15.31;100.00
41636;BME280;27623;51.966;4.602;2022-10-30T04:05:30;64921.06;;;15.24;100.00
41636;BME280;27623;51.966;4.602;2022-10-30T04:07:57;64884.41;;;15.21;100.00
41636;BME280;27623;51.966;4.602;2022-10-30T04:10:28;64878.94;;;15.16;100.00
41636;BME280;27623;51.966;4.602;2022-10-30T04:13:00;64915.03;;;15.19;100.00
41636;BME280;27623;51.966;4.602;2022-10-30T04:15:30;64853.88;;;15.02;100.00
41636;BME280;27623;51.966;4.602;2022-10-30T04:17:56;64891.38;;;15.18;100.00
41636;BME280;27623;51.966;4.602;2022-10-30T04:20:27;64860.19;;;15.20;100.00
41636;BME280;27623;51.966;4.602;2022-10-30T04:23:03;64922.91;;;15.28;100.00
41636;BME280;27623;51.966;4.602;2022-10-30T04:25:33;64884.63;;;15.17;100.00
41636;BME280;27623;51.966;4.602;2022-10-30T04:28:01;64905.75;;;15.03;100.00
41636;BME280;27623;51.966;4.602;2022-10-30T04:30:30;64864.69;;;15.03;100.00
41636;BME280;27623;51.966;4.602;2022-10-30T04:33:00;64897.47;;;15.09;100.00
41636;BME280;27623;51.966;4.602;2022-10-30T04:35:30;64871.09;;;15.06;100.00
41636;BME280;27623;51.966;4.602;2022-10-30T04:38:00;64868.31;;;15.11;100.00
41636;BME280;27623;51.966;4.602;2022-10-30T04:40:32;64855.72;;;14.99;100.00
41636;BME280;27623;51.966;4.602;2022-10-30T04:42:58;64871.28;;;15.02;100.00
41636;BME280;27623;51.966;4.602;2022-10-30T04:45:24;64854.50;;;14.89;100.00
41636;BME280;27623;51.966;4.602;2022-10-30T04:47:49;64863.97;;;15.00;100.00
41636;BME280;27623;51.966;4.602;2022-10-30T04:50:15;64848.06;;;14.92;100.00
41636;BME280;27623;51.966;4.602;2022-10-30T04:52:40;64839.09;;;14.89;100.00
41636;BME280;27623;51.966;4.602;2022-10-30T04:55:07;64825.94;;;14.76;100.00
41636;BME280;27623;51.966;4.602;2022-10-30T04:57:33;64826.66;;;14.79;100.00
41636;BME280;27623;51.966;4.602;2022-10-30T04:59:59;64856.94;;;14.72;100.00
41636;BME280;27623;51.966;4.602;2022-10-30T05:02:24;64831.56;;;14.91;100.00
41636;BME280;27623;51.966;4.602;2022-10-30T05:04:54;64845.31;;;14.90;100.00
41636;BME280;27623;51.966;4.602;2022-10-30T05:07:20;64855.75;;;14.92;100.00
41636;BME280;27623;51.966;4.602;2022-10-30T05:09:45;64842.75;;;14.90;100.00
41636;BME280;27623;51.966;4.602;2022-10-30T05:12:11;64883.56;;;15.01;100.00
41636;BME280;27623;51.966;4.602;2022-10-30T05:14:36;64865.84;;;14.90;100.00
41636;BME280;27623;51.966;4.602;2022-10-30T05:17:02;64856.09;;;14.97;100.00
41636;BME280;27623;51.966;4.602;2022-10-30T05:19:30;64839.78;;;14.99;100.00
41636;BME280;27623;51.966;4.602;2022-10-30T05:21:57;64883.63;;;14.94;100.00
41636;BME280;27623;51.966;4.602;2022-10-30T05:24:23;64868.25;;;14.87;100.00
41636;BME280;27623;51.966;4.602;2022-10-30T05:26:49;64851.13;;;15.00;100.00
41636;BME280;27623;51.966;4.602;2022-10-30T05:29:14;64875.56;;;14.96;100.00
41636;BME280;27623;51.966;4.602;2022-10-30T05:31:40;64838.91;;;14.93;100.00
41636;BME280;27623;51.966;4.602;2022-10-30T05:34:05;64874.06;;;14.97;100.00
41636;BME280;27623;51.966;4.602;2022-10-30T05:36:31;64829.22;;;14.79;100.00
41636;BME280;27623;51.966;4.602;2022-10-30T05:38:56;64845.41;;;14.75;100.00
41636;BME280;27623;51.966;4.602;2022-10-30T05:41:25;64842.66;;;14.73;100.00
41636;BME280;27623;51.966;4.602;2022-10-30T05:43:50;64815.00;;;14.66;100.00
41636;BME280;27623;51.966;4.602;2022-10-30T05:46:18;64810.06;;;14.62;100.00
41636;BME280;27623;51.966;4.602;2022-10-30T05:48:43;64790.72;;;14.49;100.00
41636;BME280;27623;51.966;4.602;2022-10-30T05:51:09;64837.56;;;14.59;100.00
41636;BME280;27623;51.966;4.602;2022-10-30T05:53:35;64846.41;;;14.53;100.00
41636;BME280;27623;51.966;4.602;2022-10-30T05:56:02;64817.19;;;14.68;100.00
41636;BME280;27623;51.966;4.602;2022-10-30T05:58:30;64808.78;;;14.65;100.00
41636;BME280;27623;51.966;4.602;2022-10-30T06:00:56;64814.81;;;14.71;100.00
41636;BME280;27623;51.966;4.602;2022-10-30T06:03:25;64859.16;;;14.74;100.00
41636;BME280;27623;51.966;4.602;2022-10-30T06:05:50;64844.31;;;14.74;100.00
41636;BME280;27623;51.966;4.602;2022-10-30T06:08:15;64843.16;;;14.81;100.00
41636;BME280;27623;51.966;4.602;2022-10-30T06:10:41;64858.06;;;14.66;100.00
41636;BME280;27623;51.966;4.602;2022-10-30T06:13:08;64853.25;;;14.78;100.00
41636;BME280;27623;51.966;4.602;2022-10-30T06:15:34;64830.69;;;14.78;100.00
41636;BME280;27623;51.966;4.602;2022-10-30T06:17:59;64823.38;;;14.76;100.00
41636;BME280;27623;51.966;4.602;2022-10-30T06:20:28;64833.31;;;14.71;100.00
41636;BME280;27623;51.966;4.602;2022-10-30T06:23:02;64838.84;;;14.62;100.00
41636;BME280;27623;51.966;4.602;2022-10-30T06:25:33;64798.19;;;14.60;100.00
41636;BME280;27623;51.966;4.602;2022-10-30T06:28:00;64823.25;;;14.67;100.00
41636;BME280;27623;51.966;4.602;2022-10-30T06:30:28;64835.38;;;14.57;100.00
41636;BME280;27623;51.966;4.602;2022-10-30T06:33:02;64800.25;;;14.53;100.00
41636;BME280;27623;51.966;4.602;2022-10-30T06:35:31;64820.75;;;14.53;100.00
41636;BME280;27623;51.966;4.602;2022-10-30T06:37:59;64810.97;;;14.67;100.00
41636;BME280;27623;51.966;4.602;2022-10-30T06:40:25;64837.94;;;14.57;100.00
41636;BME280;27623;51.966;4.602;2022-10-30T06:42:52;64818.69;;;14.60;100.00
41636;BME280;27623;51.966;4.602;2022-10-30T06:45:19;64830.59;;;14.62;100.00
41636;BME280;27623;51.966;4.602;2022-10-30T06:47:48;64854.41;;;14.65;100.00
41636;BME280;27623;51.966;4.602;2022-10-30T06:50:20;64821.47;;;14.56;100.00
41636;BME280;27623;51.966;4.602;2022-10-30T06:52:48;64798.78;;;14.47;100.00
41636;BME280;27623;51.966;4.602;2022-10-30T06:55:14;64816.72;;;14.54;100.00
41636;BME280;27623;51.966;4.602;2022-10-30T06:57:39;64807.34;;;14.59;100.00
41636;BME280;27623;51.966;4.602;2022-10-30T07:00:07;64847.44;;;14.68;100.00
41636;BME280;27623;51.966;4.602;2022-10-30T07:02:34;64843.41;;;14.69;100.00
41636;BME280;27623;51.966;4.602;2022-10-30T07:05:00;64809.72;;;14.57;100.00
41636;BME280;27623;51.966;4.602;2022-10-30T07:07:34;64832.06;;;14.61;100.00
41636;BME280;27623;51.966;4.602;2022-10-30T07:09:59;64818.97;;;14.79;100.00
41636;BME280;27623;51.966;4.602;2022-10-30T07:12:28;64841.94;;;14.70;100.00
41636;BME280;27623;51.966;4.602;2022-10-30T07:14:53;64806.84;;;14.44;100.00
41636;BME280;27623;51.966;4.602;2022-10-30T07:17:19;64842.91;;;14.54;100.00
41636;BME280;27623;51.966;4.602;2022-10-30T07:19:45;64824.72;;;14.66;100.00
41636;BME280;27623;51.966;4.602;2022-10-30T07:22:11;64865.91;;;14.75;100.00
41636;BME280;27623;51.966;4.602;2022-10-30T07:24:38;64842.81;;;14.75;100.00
41636;BME280;27623;51.966;4.602;2022-10-30T07:27:06;64874.31;;;14.86;100.00
41636;BME280;27623;51.966;4.602;2022-10-30T07:29:31;64862.38;;;14.91;100.00
41636;BME280;27623;51.966;4.602;2022-10-30T07:31:57;64873.56;;;14.83;100.00
41636;BME280;27623;51.966;4.602;2022-10-30T07:34:22;64851.59;;;14.76;100.00
41636;BME280;27623;51.966;4.602;2022-10-30T07:36:50;64859.81;;;14.84;100.00
41636;BME280;27623;51.966;4.602;2022-10-30T07:39:18;64852.09;;;14.91;100.00
41636;BME280;27623;51.966;4.602;2022-10-30T07:41:43;64900.66;;;14.96;100.00
41636;BME280;27623;51.966;4.602;2022-10-30T07:44:09;64866.72;;;15.02;100.00
41636;BME280;27623;51.966;4.602;2022-10-30T07:46:37;64853.94;;;14.88;100.00
41636;BME280;27623;51.966;4.602;2022-10-30T07:49:02;64873.34;;;14.94;100.00
41636;BME280;27623;51.966;4.602;2022-10-30T07:51:30;64881.63;;;14.88;100.00
41636;BME280;27623;51.966;4.602;2022-10-30T07:53:56;64823.34;;;14.84;100.00
41636;BME280;27623;51.966;4.602;2022-10-30T07:56:23;64835.13;;;14.75;100.00
41636;BME280;27623;51.966;4.602;2022-10-30T07:58:49;64826.50;;;14.77;100.00
41636;BME280;27623;51.966;4.602;2022-10-30T08:01:14;64864.97;;;14.77;100.00
41636;BME280;27623;51.966;4.602;2022-10-30T08:03:40;64831.06;;;14.84;100.00
41636;BME280;27623;51.966;4.602;2022-10-30T08:06:08;64873.19;;;14.92;100.00
41636;BME280;27623;51.966;4.602;2022-10-30T08:08:33;64843.66;;;14.95;100.00
41636;BME280;27623;51.966;4.602;2022-10-30T08:11:02;64869.81;;;15.03;100.00
41636;BME280;27623;51.966;4.602;2022-10-30T08:13:29;64873.66;;;15.06;100.00
41636;BME280;27623;51.966;4.602;2022-10-30T08:15:55;64890.34;;;15.10;100.00
41636;BME280;27623;51.966;4.602;2022-10-30T08:18:23;64884.47;;;15.07;100.00
41636;BME280;27623;51.966;4.602;2022-10-30T08:20:49;64913.94;;;15.18;100.00
41636;BME280;27623;51.966;4.602;2022-10-30T08:23:15;64923.28;;;15.19;100.00
41636;BME280;27623;51.966;4.602;2022-10-30T08:25:41;64901.47;;;15.23;100.00
41636;BME280;27623;51.966;4.602;2022-10-30T08:28:12;64866.41;;;15.28;100.00
41636;BME280;27623;51.966;4.602;2022-10-30T08:30:38;64922.50;;;15.37;100.00
41636;BME280;27623;51.966;4.602;2022-10-30T08:33:11;64924.47;;;15.44;100.00
41636;BME280;27623;51.966;4.602;2022-10-30T08:35:38;64940.56;;;15.54;100.00
41636;BME280;27623;51.966;4.602;2022-10-30T08:38:03;64962.38;;;15.65;100.00
41636;BME280;27623;51.966;4.602;2022-10-30T08:40:31;64979.50;;;15.90;100.00
41636;BME280;27623;51.966;4.602;2022-10-30T08:42:57;64998.78;;;15.94;100.00
41636;BME280;27623;51.966;4.602;2022-10-30T08:45:25;65016.19;;;16.00;100.00
41636;BME280;27623;51.966;4.602;2022-10-30T08:48:01;65019.16;;;15.98;100.00
41636;BME280;27623;51.966;4.602;2022-10-30T08:50:28;65015.94;;;16.12;100.00
41636;BME280;27623;51.966;4.602;2022-10-30T08:53:05;65003.63;;;16.20;100.00
41636;BME280;27623;51.966;4.602;2022-10-30T08:55:32;65029.88;;;16.20;100.00
41636;BME280;27623;51.966;4.602;2022-10-30T08:58:00;65034.06;;;16.22;100.00
41636;BME280;27623;51.966;4.602;2022-10-30T09:00:26;65021.22;;;16.22;100.00
41636;BME280;27623;51.966;4.602;2022-10-30T09:02:54;65030.03;;;16.23;100.00
41636;BME280;27623;51.966;4.602;2022-10-30T09:05:19;65042.09;;;16.34;100.00
41636;BME280;27623;51.966;4.602;2022-10-30T09:07:45;65049.06;;;16.38;100.00
41636;BME280;27623;51.966;4.602;2022-10-30T09:10:11;65032.28;;;16.48;100.00
41636;BME280;27623;51.966;4.602;2022-10-30T09:12:38;65060.34;;;16.60;100.00
41636;BME280;27623;51.966;4.602;2022-10-30T09:15:06;65073.75;;;16.68;100.00
41636;BME280;27623;51.966;4.602;2022-10-30T09:17:32;65132.88;;;16.82;100.00
41636;BME280;27623;51.966;4.602;2022-10-30T09:19:59;65127.66;;;16.96;100.00
41636;BME280;27623;51.966;4.602;2022-10-30T09:22:25;65121.91;;;17.03;100.00
41636;BME280;27623;51.966;4.602;2022-10-30T09:24:52;65129.09;;;17.02;100.00
41636;BME280;27623;51.966;4.602;2022-10-30T09:27:22;65125.03;;;17.03;100.00
41636;BME280;27623;51.966;4.602;2022-10-30T09:29:48;65147.03;;;17.16;100.00
41636;BME280;27623;51.966;4.602;2022-10-30T09:32:16;65132.69;;;17.17;100.00
41636;BME280;27623;51.966;4.602;2022-10-30T09:34:42;65176.38;;;17.32;100.00
41636;BME280;27623;51.966;4.602;2022-10-30T09:37:10;65135.88;;;17.35;100.00
41636;BME280;27623;51.966;4.602;2022-10-30T09:39:38;65173.59;;;17.36;100.00
41636;BME280;27623;51.966;4.602;2022-10-30T09:56:05;65280.28;;;18.28;100.00
41636;BME280;27623;51.966;4.602;2022-10-30T09:59:03;65271.00;;;18.36;100.00
41636;BME280;27623;51.966;4.602;2022-10-30T10:06:29;65325.63;;;18.58;100.00
41636;BME280;27623;51.966;4.602;2022-10-30T10:09:03;65324.69;;;18.66;100.00
41636;BME280;27623;51.966;4.602;2022-10-30T10:11:40;65328.25;;;18.81;100.00
41636;BME280;27623;51.966;4.602;2022-10-30T10:14:21;65380.19;;;19.25;100.00
41636;BME280;27623;51.966;4.602;2022-10-30T10:16:51;65431.97;;;19.34;100.00
41636;BME280;27623;51.966;4.602;2022-10-30T10:22:01;65478.56;;;19.89;100.00
41636;BME280;27623;51.966;4.602;2022-10-30T10:27:08;65519.03;;;20.14;100.00
41636;BME280;27623;51.966;4.602;2022-10-30T10:30:04;65523.28;;;20.16;100.00
41636;BME280;27623;51.966;4.602;2022-10-30T10:43:55;65568.53;;;20.74;100.00
41636;BME280;27623;51.966;4.602;2022-10-30T10:46:37;65577.25;;;20.49;98.52
41636;BME280;27623;51.966;4.602;2022-10-30T10:52:01;65595.72;;;20.54;97.21
41636;BME280;27623;51.966;4.602;2022-10-30T10:54:36;65612.53;;;20.57;99.40
41636;BME280;27623;51.966;4.602;2022-10-30T10:57:06;65651.94;;;20.82;99.29
41636;BME280;27623;51.966;4.602;2022-10-30T10:59:41;65625.38;;;20.72;97.82
41636;BME280;27623;51.966;4.602;2022-10-30T11:05:00;65689.91;;;21.38;96.32
41636;BME280;27623;51.966;4.602;2022-10-30T11:07:31;65695.78;;;21.41;95.68
41636;BME280;27623;51.966;4.602;2022-10-30T11:10:00;65714.78;;;21.54;97.17
41636;BME280;27623;51.966;4.602;2022-10-30T11:12:28;65705.94;;;21.46;93.62
41636;BME280;27623;51.966;4.602;2022-10-30T11:14:57;65695.41;;;21.43;96.27
41636;BME280;27623;51.966;4.602;2022-10-30T11:17:37;65694.25;;;21.25;95.03
41636;BME280;27623;51.966;4.602;2022-10-30T11:20:21;65667.47;;;21.13;95.61
41636;BME280;27623;51.966;4.602;2022-10-30T11:22:49;65637.66;;;20.85;96.36
41636;BME280;27623;51.966;4.602;2022-10-30T11:25:19;65578.84;;;20.57;96.01
41636;BME280;27623;51.966;4.602;2022-10-30T11:27:53;65571.22;;;20.60;98.72
41636;BME280;27623;51.966;4.602;2022-10-30T11:30:24;65581.50;;;20.50;97.93
41636;BME280;27623;51.966;4.602;2022-10-30T11:32:50;65578.19;;;20.47;100.00
41636;BME280;27623;51.966;4.602;2022-10-30T11:35:19;65563.91;;;20.51;100.00
41636;BME280;27623;51.966;4.602;2022-10-30T11:37:50;65599.09;;;20.43;100.00
41636;BME280;27623;51.966;4.602;2022-10-30T11:40:21;65511.16;;;20.29;100.00
41636;BME280;27623;51.966;4.602;2022-10-30T11:42:57;65545.97;;;20.22;100.00
41636;BME280;27623;51.966;4.602;2022-10-30T11:45:27;65528.28;;;20.13;100.00
41636;BME280;27623;51.966;4.602;2022-10-30T11:47:57;65531.06;;;20.16;100.00
41636;BME280;27623;51.966;4.602;2022-10-30T11:50:25;65484.56;;;20.02;100.00
41636;BME280;27623;51.966;4.602;2022-10-30T11:52:55;65524.66;;;20.05;100.00
41636;BME280;27623;51.966;4.602;2022-10-30T11:55:26;65522.28;;;20.01;100.00
41636;BME280;27623;51.966;4.602;2022-10-30T11:57:57;65512.47;;;20.01;100.00
41636;BME280;27623;51.966;4.602;2022-10-30T12:00:33;65452.63;;;19.96;100.00
41636;BME280;27623;51.966;4.602;2022-10-30T12:03:00;65513.22;;;19.97;100.00
41636;BME280;27623;51.966;4.602;2022-10-30T12:05:37;65523.97;;;19.95;100.00
41636;BME280;27623;51.966;4.602;2022-10-30T12:13:27;65514.00;;;19.93;100.00
41636;BME280;27623;51.966;4.602;2022-10-30T12:16:08;65480.63;;;19.81;100.00
41636;BME280;27623;51.966;4.602;2022-10-30T12:18:39;65479.03;;;19.73;100.00
41636;BME280;27623;51.966;4.602;2022-10-30T12:21:05;65464.63;;;19.74;100.00
41636;BME280;27623;51.966;4.602;2022-10-30T12:23:33;65486.94;;;19.75;100.00
41636;BME280;27623;51.966;4.602;2022-10-30T12:26:08;65472.38;;;19.74;100.00
41636;BME280;27623;51.966;4.602;2022-10-30T12:28:35;65490.31;;;19.71;100.00
41636;BME280;27623;51.966;4.602;2022-10-30T12:31:17;65507.88;;;19.71;100.00
41636;BME280;27623;51.966;4.602;2022-10-30T12:36:32;65430.84;;;19.71;100.00
41636;BME280;27623;51.966;4.602;2022-10-30T12:39:10;65482.56;;;19.71;100.00
41636;BME280;27623;51.966;4.602;2022-10-30T12:41:44;65458.22;;;19.63;100.00
41636;BME280;27623;51.966;4.602;2022-10-30T12:44:21;65453.28;;;19.59;100.00
41636;BME280;27623;51.966;4.602;2022-10-30T12:47:03;65451.41;;;19.62;100.00
41636;BME280;27623;51.966;4.602;2022-10-30T12:49:40;65450.13;;;19.58;100.00
41636;BME280;27623;51.966;4.602;2022-10-30T12:52:23;65451.75;;;19.67;100.00
41636;BME280;27623;51.966;4.602;2022-10-30T12:55:08;65455.97;;;19.68;100.00
41636;BME280;27623;51.966;4.602;2022-10-30T12:57:43;65479.81;;;19.69;100.00
41636;BME280;27623;51.966;4.602;2022-10-30T13:00:13;65490.31;;;19.71;100.00
41636;BME280;27623;51.966;4.602;2022-10-30T13:05:37;65486.47;;;19.68;100.00
41636;BME280;27623;51.966;4.602;2022-10-30T13:08:27;65453.78;;;19.66;100.00
41636;BME280;27623;51.966;4.602;2022-10-30T13:11:10;65434.22;;;19.60;100.00
41636;BME280;27623;51.966;4.602;2022-10-30T13:13:46;65468.94;;;19.61;100.00
41636;BME280;27623;51.966;4.602;2022-10-30T13:16:17;65460.66;;;19.61;100.00
41636;BME280;27623;51.966;4.602;2022-10-30T13:18:44;65442.53;;;19.61;100.00
41636;BME280;27623;51.966;4.602;2022-10-30T13:29:21;65489.00;;;19.75;100.00
41636;BME280;27623;51.966;4.602;2022-10-30T13:38:15;65509.06;;;20.12;100.00
41636;BME280;27623;51.966;4.602;2022-10-30T13:40:50;65557.88;;;20.38;100.00
41636;BME280;27623;51.966;4.602;2022-10-30T13:51:44;65672.19;;;21.29;93.92
41636;BME280;27623;51.966;4.602;2022-10-30T13:54:29;65656.75;;;21.08;95.30
41636;BME280;27623;51.966;4.602;2022-10-30T13:57:01;65565.50;;;20.59;97.03
41636;BME280;27623;51.966;4.602;2022-10-30T14:02:24;65521.84;;;20.34;100.00
41636;BME280;27623;51.966;4.602;2022-10-30T14:05:05;65509.63;;;20.13;100.00
41636;BME280;27623;51.966;4.602;2022-10-30T14:10:30;65489.13;;;19.84;100.00
41636;BME280;27623;51.966;4.602;2022-10-30T14:13:19;65443.25;;;19.64;100.00
41636;BME280;27623;51.966;4.602;2022-10-30T14:16:01;65418.97;;;19.48;100.00
41636;BME280;27623;51.966;4.602;2022-10-30T14:18:42;65397.75;;;19.48;100.00
41636;BME280;27623;51.966;4.602;2022-10-30T14:24:01;65435.66;;;19.35;100.00
41636;BME280;27623;51.966;4.602;2022-10-30T14:26:32;65421.16;;;19.27;100.00
41636;BME280;27623;51.966;4.602;2022-10-30T14:31:59;65382.88;;;19.10;100.00
41636;BME280;27623;51.966;4.602;2022-10-30T14:37:12;65357.84;;;18.99;100.00
41636;BME280;27623;51.966;4.602;2022-10-30T14:39:39;65346.78;;;18.96;100.00
41636;BME280;27623;51.966;4.602;2022-10-30T14:45:13;65342.22;;;18.90;100.00
41636;BME280;27623;51.966;4.602;2022-10-30T14:55:49;65361.06;;;18.85;100.00
41636;BME280;27623;51.966;4.602;2022-10-30T14:58:22;65319.19;;;18.85;100.00
41636;BME280;27623;51.966;4.602;2022-10-30T15:01:25;65313.25;;;18.58;100.00
41636;BME280;27623;51.966;4.602;2022-10-30T15:04:08;65317.72;;;18.55;100.00